createdAt,value
2022-09-13T00:02:02.627Z,1.70
2022-09-13T00:05:04.524Z,1.65
2022-09-13T00:08:07.319Z,1.77
2022-09-13T00:11:18.399Z,1.70
2022-09-13T00:14:20.133Z,1.60
2022-09-13T00:17:23.090Z,1.77
2022-09-13T00:20:24.917Z,1.70
2022-09-13T00:23:26.573Z,2.05
2022-09-13T00:26:29.257Z,1.70
2022-09-13T00:29:31.204Z,1.90
2022-09-13T00:32:34.807Z,1.88
2022-09-13T00:35:36.495Z,1.80
2022-09-13T00:38:39.978Z,1.92
2022-09-13T00:41:41.737Z,1.90
2022-09-13T00:45:06.665Z,1.80
2022-09-13T00:48:11.060Z,1.80
2022-09-13T00:51:13.741Z,1.58
2022-09-13T00:54:17.654Z,1.65
2022-09-13T00:57:22.185Z,1.80
2022-09-13T01:00:23.792Z,1.90
2022-09-13T01:03:28.912Z,1.80
2022-09-13T01:06:33.761Z,1.83
2022-09-13T01:09:40.061Z,1.60
2022-09-13T01:12:50.287Z,1.90
2022-09-13T01:15:52.521Z,1.90
2022-09-13T01:18:54.198Z,1.77
2022-09-13T01:22:07.919Z,2.30
2022-09-13T01:25:31.386Z,1.88
2022-09-13T01:28:47.934Z,2.20
2022-09-13T01:32:04.915Z,1.63
2022-09-13T01:35:27.888Z,1.77
2022-09-13T01:38:49.532Z,1.70
2022-09-13T01:42:09.943Z,1.50
2022-09-13T01:45:55.056Z,1.90
2022-09-13T01:49:03.550Z,1.70
2022-09-13T01:52:13.544Z,1.60
2022-09-13T01:55:27.450Z,1.60
2022-09-13T01:58:45.764Z,1.50
2022-09-13T02:01:55.371Z,1.55
2022-09-13T02:05:04.764Z,1.50
2022-09-13T02:08:12.992Z,1.50
2022-09-13T02:11:17.577Z,1.52
2022-09-13T02:14:27.489Z,1.50
2022-09-13T02:17:37.127Z,1.70
2022-09-13T02:20:43.824Z,1.40
2022-09-13T02:23:52.120Z,1.60
2022-09-13T02:26:56.396Z,1.50
2022-09-13T02:30:04.624Z,1.30
2022-09-13T02:33:18.096Z,1.55
2022-09-13T02:36:27.972Z,1.50
2022-09-13T02:39:32.748Z,1.40
2022-09-13T02:42:49.924Z,1.48
2022-09-13T02:46:04.074Z,1.50
2022-09-13T02:49:21.153Z,1.50
2022-09-13T02:52:33.607Z,1.60
2022-09-13T02:55:47.965Z,1.60
2022-09-13T02:59:12.810Z,2.08
2022-09-13T03:02:19.078Z,1.70
2022-09-13T03:08:23.816Z,1.48
2022-09-13T03:11:41.699Z,1.52
2022-09-13T03:14:56.703Z,1.63
2022-09-13T03:18:24.122Z,1.67
2022-09-13T03:21:39.521Z,1.60
2022-09-13T03:25:04.596Z,2.05
2022-09-13T03:28:15.718Z,1.90
2022-09-13T03:31:21.377Z,2.00
2022-09-13T03:34:32.233Z,1.92
2022-09-13T03:37:57.042Z,2.10
2022-09-13T03:41:25.352Z,1.90
2022-09-13T03:44:28.900Z,1.80
2022-09-13T03:47:34.221Z,1.98
2022-09-13T03:50:36.630Z,1.73
2022-09-13T03:53:45.865Z,1.58
2022-09-13T03:57:10.138Z,1.70
2022-09-13T04:00:14.201Z,1.65
2022-09-13T04:03:15.995Z,1.77
2022-09-13T04:06:17.683Z,1.60
2022-09-13T04:09:19.323Z,1.75
2022-09-13T04:12:20.920Z,1.40
2022-09-13T04:15:22.626Z,1.55
2022-09-13T04:18:24.629Z,1.30
2022-09-13T04:21:26.262Z,1.70
2022-09-13T04:24:29.549Z,1.50
2022-09-13T04:27:31.323Z,1.90
2022-09-13T04:30:32.928Z,1.92
2022-09-13T04:33:35.477Z,1.75
2022-09-13T04:36:37.884Z,1.90
2022-09-13T04:39:39.586Z,1.65
2022-09-13T04:42:41.427Z,2.00
2022-09-13T04:45:43.319Z,1.80
2022-09-13T04:48:49.859Z,1.60
2022-09-13T04:51:51.670Z,1.88
2022-09-13T04:54:53.319Z,1.77
2022-09-13T04:57:56.647Z,1.80
2022-09-13T05:01:06.010Z,1.67
2022-09-13T05:04:09.508Z,1.90
2022-09-13T05:07:11.161Z,1.70
2022-09-13T05:10:19.396Z,1.50
2022-09-13T05:13:21.554Z,1.40
2022-09-13T05:16:33.447Z,1.50
2022-09-13T05:19:35.240Z,1.38
2022-09-13T05:22:37.038Z,1.60
2022-09-13T05:25:38.707Z,1.50
2022-09-13T05:28:40.384Z,1.42
2022-09-13T05:31:43.637Z,1.65
2022-09-13T05:34:45.767Z,1.83
2022-09-13T05:37:49.853Z,1.75
2022-09-13T05:40:57.209Z,2.10
2022-09-13T05:44:05.748Z,1.90
2022-09-13T05:47:14.406Z,1.77
2022-09-13T05:50:38.481Z,1.73
2022-09-13T05:53:43.521Z,1.98
2022-09-13T05:56:45.297Z,2.75
2022-09-13T05:59:48.185Z,2.80
2022-09-13T06:02:49.948Z,2.80
2022-09-13T06:05:56.611Z,3.33
2022-09-13T06:08:58.834Z,2.55
2022-09-13T06:12:00.665Z,2.22
2022-09-13T06:15:02.453Z,2.15
2022-09-13T06:18:04.297Z,2.00
2022-09-13T06:21:17.892Z,2.00
2022-09-13T06:24:19.936Z,2.20
2022-09-13T06:27:21.722Z,2.40
2022-09-13T06:30:23.944Z,1.90
2022-09-13T06:33:25.805Z,2.00
2022-09-13T06:36:28.261Z,2.22
2022-09-13T06:39:32.101Z,1.92
2022-09-13T06:42:35.742Z,1.90
2022-09-13T06:45:37.675Z,1.83
2022-09-13T06:48:42.135Z,1.60
2022-09-13T06:51:43.911Z,1.67
2022-09-13T06:54:46.167Z,1.60
2022-09-13T06:57:47.963Z,1.90
2022-09-13T07:00:54.136Z,1.88
2022-09-13T07:04:03.301Z,2.05
2022-09-13T07:07:05.026Z,2.00
2022-09-13T07:10:07.289Z,1.73
2022-09-13T07:13:09.351Z,1.80
2022-09-13T07:16:12.154Z,2.00
2022-09-13T07:19:18.051Z,2.05
2022-09-13T07:22:19.842Z,1.83
2022-09-13T07:25:21.625Z,1.55
2022-09-13T07:28:26.186Z,1.60
2022-09-13T07:31:38.362Z,2.15
2022-09-13T07:34:40.026Z,1.95
2022-09-13T07:37:42.455Z,1.90
2022-09-13T07:40:44.109Z,1.88
2022-09-13T07:43:46.073Z,2.50
2022-09-13T07:46:47.743Z,2.40
2022-09-13T07:49:50.516Z,2.85
2022-09-13T07:52:52.187Z,2.40
2022-09-13T07:55:54.344Z,2.35
2022-09-13T07:58:56.328Z,2.30
2022-09-13T08:01:58.158Z,2.30
2022-09-13T08:04:59.939Z,1.83
2022-09-13T08:08:01.871Z,2.22
2022-09-13T08:11:06.245Z,2.25
2022-09-13T08:14:11.003Z,2.47
2022-09-13T08:17:12.689Z,1.92
2022-09-13T08:20:14.456Z,1.70
2022-09-13T08:23:16.113Z,2.00
2022-09-13T08:26:17.874Z,2.00
2022-09-13T08:29:19.762Z,2.15
2022-09-13T08:32:21.415Z,2.17
2022-09-13T08:35:23.108Z,2.60
2022-09-13T08:38:24.903Z,2.20
2022-09-13T08:41:52.461Z,1.90
2022-09-13T08:44:56.239Z,1.90
2022-09-13T08:48:21.858Z,1.90
2022-09-13T08:51:50.776Z,1.97
2022-09-13T08:54:58.132Z,2.17
2022-09-13T08:58:29.305Z,2.28
2022-09-13T09:01:50.704Z,2.40
2022-09-13T09:05:04.250Z,2.20
2022-09-13T09:08:36.148Z,1.98
2022-09-13T09:11:46.326Z,1.90
2022-09-13T09:15:13.684Z,1.95
2022-09-13T09:18:35.764Z,1.95
2022-09-13T09:21:38.162Z,2.00
2022-09-13T09:24:45.220Z,2.05
2022-09-13T09:27:46.900Z,2.00
2022-09-13T09:30:51.517Z,2.00
2022-09-13T09:33:59.639Z,1.98
2022-09-13T09:37:06.921Z,1.80
2022-09-13T09:40:13.765Z,1.80
2022-09-13T09:43:30.557Z,2.05
2022-09-13T09:46:35.856Z,1.80
2022-09-13T09:49:59.480Z,1.98
2022-09-13T09:53:14.569Z,1.98
2022-09-13T09:56:30.474Z,2.00
2022-09-13T10:02:43.195Z,1.80
2022-09-13T10:05:46.481Z,1.77
2022-09-13T10:09:14.772Z,1.52
2022-09-13T10:12:27.714Z,1.70
2022-09-13T10:15:34.206Z,1.60
2022-09-13T10:18:44.405Z,1.70
2022-09-13T10:22:01.021Z,1.60
2022-09-13T10:25:14.246Z,1.63
2022-09-13T10:28:19.579Z,1.70
2022-09-13T10:31:27.205Z,1.50
2022-09-13T10:34:34.651Z,1.60
2022-09-13T10:37:37.814Z,1.80
2022-09-13T10:40:39.770Z,1.70
2022-09-13T10:43:41.569Z,1.50
2022-09-13T10:46:43.370Z,1.80
2022-09-13T10:49:54.388Z,1.77
2022-09-13T10:52:58.064Z,1.80
2022-09-13T10:56:00.196Z,1.63
2022-09-13T10:59:22.700Z,1.70
2022-09-13T11:02:37.012Z,1.48
2022-09-13T11:05:53.587Z,1.50
2022-09-13T11:08:58.280Z,1.67
2022-09-13T11:12:15.258Z,1.60
2022-09-13T11:15:54.757Z,1.70
2022-09-13T11:19:17.035Z,1.48
2022-09-13T11:22:22.330Z,1.63
2022-09-13T11:25:39.158Z,1.50
2022-09-13T11:28:52.966Z,1.77
2022-09-13T11:31:54.789Z,1.50
2022-09-13T11:35:14.914Z,1.70
2022-09-13T11:38:31.174Z,1.52
2022-09-13T11:42:02.410Z,1.80
2022-09-13T11:45:24.730Z,1.63
2022-09-13T11:48:48.107Z,1.70
2022-09-13T11:52:04.982Z,1.70
2022-09-13T11:55:18.341Z,1.80
2022-09-13T11:58:27.376Z,1.85
2022-09-13T12:01:38.894Z,1.88
2022-09-13T12:05:21.499Z,1.70
2022-09-13T12:08:33.294Z,1.65
2022-09-13T12:11:39.946Z,1.60
2022-09-13T12:14:52.140Z,1.65
2022-09-13T12:18:05.620Z,1.70
2022-09-13T12:21:14.736Z,1.70
2022-09-13T12:24:47.233Z,1.20
2022-09-13T12:28:11.661Z,1.60
2022-09-13T12:31:19.722Z,1.38
2022-09-13T12:34:44.842Z,1.60
2022-09-13T12:37:58.180Z,1.60
2022-09-13T12:41:26.136Z,1.50
2022-09-13T12:45:05.728Z,1.40
2022-09-13T12:48:17.431Z,1.30
2022-09-13T12:51:22.238Z,1.60
2022-09-13T12:54:33.303Z,1.65
2022-09-13T12:57:48.708Z,1.70
2022-09-13T13:01:11.958Z,1.50
2022-09-13T13:04:20.447Z,1.55
2022-09-13T13:07:23.869Z,1.40
2022-09-13T13:10:32.431Z,1.30
2022-09-13T13:13:41.819Z,1.40
2022-09-13T13:16:48.305Z,1.30
2022-09-13T13:19:50.152Z,1.40
2022-09-13T13:22:52.332Z,1.40
2022-09-13T13:26:03.109Z,1.40
2022-09-13T13:29:15.656Z,1.45
2022-09-13T13:32:17.360Z,1.20
2022-09-13T13:35:32.422Z,1.30
2022-09-13T13:38:41.445Z,1.20
2022-09-13T13:42:00.590Z,1.20
2022-09-13T13:45:02.221Z,1.30
2022-09-13T13:48:11.046Z,1.30
2022-09-13T13:51:18.901Z,1.20
2022-09-13T13:54:50.961Z,1.20
2022-09-13T13:58:23.488Z,1.20
2022-09-13T14:01:30.022Z,1.30
2022-09-13T14:04:58.976Z,1.20
2022-09-13T14:08:00.550Z,1.10
2022-09-13T14:11:11.097Z,1.10
2022-09-13T14:14:50.569Z,1.20
2022-09-13T14:18:10.972Z,1.00
2022-09-13T14:21:22.629Z,1.05
2022-09-13T14:24:24.763Z,1.00
2022-09-13T14:27:30.568Z,1.13
2022-09-13T14:30:38.356Z,1.00
2022-09-13T14:33:39.992Z,1.00
2022-09-13T14:36:51.936Z,0.95
2022-09-13T14:40:09.096Z,1.02
2022-09-13T14:43:20.195Z,1.20
2022-09-13T14:46:27.814Z,1.15
2022-09-13T14:49:35.686Z,1.00
2022-09-13T14:52:50.648Z,1.13
2022-09-13T14:56:01.676Z,1.17
2022-09-13T14:59:12.363Z,1.05
2022-09-13T15:02:20.954Z,1.20
2022-09-13T15:05:29.496Z,1.35
2022-09-13T15:08:34.108Z,1.20
2022-09-13T15:11:53.390Z,1.30
2022-09-13T15:15:21.428Z,1.23
2022-09-13T15:18:35.773Z,1.20
2022-09-13T15:21:38.742Z,1.10
2022-09-13T15:24:46.350Z,1.35
2022-09-13T15:27:49.644Z,1.30
2022-09-13T15:30:51.828Z,1.40
2022-09-13T15:34:18.518Z,1.27
2022-09-13T15:37:29.521Z,1.42
2022-09-13T15:40:42.691Z,1.30
2022-09-13T15:43:44.679Z,1.35
2022-09-13T15:46:49.394Z,1.40
2022-09-13T15:49:52.294Z,1.42
2022-09-13T15:52:55.619Z,1.40
2022-09-13T15:55:57.485Z,1.48
2022-09-13T15:58:59.165Z,1.42
2022-09-13T16:02:03.113Z,1.45
2022-09-13T16:05:05.677Z,1.50
2022-09-13T16:08:11.034Z,1.58
2022-09-13T16:11:12.807Z,1.58
2022-09-13T16:14:15.873Z,1.45
2022-09-13T16:17:26.419Z,1.70
2022-09-13T16:20:28.250Z,1.50
2022-09-13T16:23:29.872Z,1.60
2022-09-13T16:26:32.887Z,1.60
2022-09-13T16:29:34.527Z,1.60
2022-09-13T16:32:36.191Z,1.52
2022-09-13T16:35:37.811Z,1.50
2022-09-13T16:38:39.624Z,1.52
2022-09-13T16:41:41.306Z,1.60
2022-09-13T16:44:43.619Z,1.50
2022-09-13T16:47:45.551Z,1.48
2022-09-13T16:50:47.202Z,1.50
2022-09-13T16:53:51.011Z,1.63
2022-09-13T16:56:53.726Z,1.77
2022-09-13T16:59:58.499Z,1.55
2022-09-13T17:03:00.301Z,1.80
2022-09-13T17:06:04.988Z,1.60
2022-09-13T17:09:07.869Z,1.60
2022-09-13T17:12:11.654Z,1.70
2022-09-13T17:15:13.525Z,1.75
2022-09-13T17:18:15.264Z,1.67
2022-09-13T17:21:17.299Z,1.63
2022-09-13T17:24:19.383Z,1.90
2022-09-13T17:27:21.023Z,1.70
2022-09-13T17:30:22.674Z,1.70
2022-09-13T17:33:24.276Z,1.80
2022-09-13T17:36:26.814Z,1.77
2022-09-13T17:39:28.578Z,1.63
2022-09-13T17:42:30.287Z,1.80
2022-09-13T17:45:32.076Z,1.80
2022-09-13T17:48:34.212Z,1.65
2022-09-13T17:51:36.051Z,1.90
2022-09-13T17:54:37.676Z,1.80
2022-09-13T17:57:39.731Z,1.58
2022-09-13T18:00:42.370Z,1.80
2022-09-13T18:03:44.562Z,1.80
2022-09-13T18:06:46.773Z,1.73
2022-09-13T18:09:48.405Z,1.70
2022-09-13T18:12:50.086Z,1.77
2022-09-13T18:16:03.352Z,1.70
2022-09-13T18:19:05.128Z,1.80
2022-09-13T18:22:09.967Z,1.73
2022-09-13T18:25:11.608Z,1.60
2022-09-13T18:28:14.367Z,1.88
2022-09-13T18:31:17.859Z,1.60
2022-09-13T18:34:19.649Z,1.58
2022-09-13T18:37:21.418Z,1.60
2022-09-13T18:40:23.176Z,1.75
2022-09-13T18:43:24.908Z,1.67
2022-09-13T18:46:30.953Z,1.90
2022-09-13T18:49:32.647Z,1.70
2022-09-13T18:52:34.277Z,1.70
2022-09-13T18:55:39.787Z,1.60
2022-09-13T19:01:45.389Z,1.70
2022-09-13T19:04:48.081Z,1.77
2022-09-13T19:07:49.776Z,1.88
2022-09-13T19:10:58.693Z,1.80
2022-09-13T19:14:03.294Z,1.58
2022-09-13T19:17:04.930Z,1.90
2022-09-13T19:20:07.233Z,1.73
2022-09-13T19:23:08.883Z,1.83
2022-09-13T19:26:19.812Z,2.15
2022-09-13T19:29:22.952Z,1.80
2022-09-13T19:32:27.237Z,1.75
2022-09-13T19:35:28.852Z,1.60
2022-09-13T19:38:31.638Z,2.03
2022-09-13T19:41:37.788Z,1.65
2022-09-13T19:44:39.718Z,2.00
2022-09-13T19:48:25.884Z,1.80
2022-09-13T19:51:07.601Z,1.60
2022-09-13T19:54:13.693Z,1.73
2022-09-13T19:57:15.384Z,1.80
2022-09-13T20:00:17.022Z,1.90
2022-09-13T20:03:19.091Z,1.65
2022-09-13T20:06:23.343Z,1.80
2022-09-13T20:09:26.334Z,2.00
2022-09-13T20:12:28.001Z,1.63
2022-09-13T20:15:31.174Z,1.80
2022-09-13T20:18:33.193Z,1.65
2022-09-13T20:21:36.415Z,1.63
2022-09-13T20:24:38.040Z,1.92
2022-09-13T20:27:39.685Z,1.80
2022-09-13T20:30:42.369Z,1.85
2022-09-13T20:33:43.962Z,1.80
2022-09-13T20:36:47.290Z,1.67
2022-09-13T20:39:49.585Z,1.95
2022-09-13T20:42:52.022Z,1.70
2022-09-13T20:45:56.773Z,1.58
2022-09-13T20:48:58.704Z,1.65
2022-09-13T20:52:00.568Z,2.00
2022-09-13T20:55:02.290Z,1.83
2022-09-13T20:58:04.015Z,1.90
2022-09-13T21:01:09.248Z,1.70
2022-09-13T21:04:11.200Z,1.77
2022-09-13T21:07:32.053Z,2.00
2022-09-13T21:10:33.957Z,1.80
2022-09-13T21:13:37.766Z,1.83
2022-09-13T21:16:41.318Z,2.28
2022-09-13T21:19:43.154Z,2.10
2022-09-13T21:22:44.790Z,1.95
2022-09-13T21:25:46.431Z,2.20
2022-09-13T21:28:48.979Z,1.90
2022-09-13T21:31:50.604Z,2.03
2022-09-13T21:34:52.251Z,2.00
2022-09-13T21:37:54.457Z,2.03
2022-09-13T21:40:58.336Z,2.40
2022-09-13T21:43:59.993Z,2.13
2022-09-13T21:47:01.792Z,1.83
2022-09-13T21:50:03.664Z,2.00
2022-09-13T21:53:05.327Z,1.95
2022-09-13T21:56:10.179Z,1.92
2022-09-13T21:59:16.854Z,1.85
2022-09-13T22:02:18.543Z,2.00
2022-09-13T22:05:20.299Z,1.92
2022-09-13T22:08:21.990Z,2.20
2022-09-13T22:11:27.832Z,2.22
2022-09-13T22:14:29.778Z,2.22
2022-09-13T22:17:31.378Z,2.22
2022-09-13T22:20:35.602Z,2.50
2022-09-13T22:23:37.626Z,2.50
2022-09-13T22:26:40.797Z,2.67
2022-09-13T22:29:43.451Z,2.70
2022-09-13T22:32:45.136Z,2.33
2022-09-13T22:35:58.182Z,2.67
2022-09-13T22:38:59.800Z,2.40
2022-09-13T22:42:01.394Z,2.55
2022-09-13T22:45:03.320Z,2.80
2022-09-13T22:48:07.516Z,2.95
2022-09-13T22:51:12.887Z,2.67
2022-09-13T22:54:16.234Z,2.47
2022-09-13T22:57:17.844Z,2.70
2022-09-13T23:00:19.563Z,2.35
2022-09-13T23:03:21.203Z,2.67
2022-09-13T23:06:24.543Z,2.70
2022-09-13T23:09:27.383Z,2.72
2022-09-13T23:12:30.061Z,2.83
2022-09-13T23:15:33.799Z,2.70
2022-09-13T23:18:35.892Z,2.70
2022-09-13T23:21:37.983Z,2.75
2022-09-13T23:24:39.618Z,2.47
2022-09-13T23:27:42.165Z,2.60
2022-09-13T23:30:43.958Z,2.70
2022-09-13T23:33:49.134Z,2.83
2022-09-13T23:36:52.492Z,2.80
2022-09-13T23:39:57.990Z,2.80
2022-09-13T23:42:59.691Z,2.78
2022-09-13T23:46:01.436Z,2.53
2022-09-13T23:49:03.601Z,2.50
2022-09-13T23:52:05.294Z,2.80
2022-09-13T23:55:07.649Z,2.83
2022-09-13T23:58:10.455Z,2.60
